Time;durP1;ratioP1;P1;durP2;ratioP2;P2;SDS_P1;SDS_P2;PMS_P1;PMS_P2;Temp;Humidity;BMP_temperature;BMP_pressure;BME280_temperature;BME280_humidity;BME280_pressure;Samples;Min_cycle;Max_cycle;Signal;HPM_P1;HPM_P2
2023/04/06 00:02:01;;;;;;;;;;;;;;;21.30;33.77;101831.97;4960424;28;19958;-70
2023/04/06 00:04:26;;;;;;;;;;;;;;;21.29;33.83;101830.28;4969946;28;19914;-70
2023/04/06 00:06:52;;;;;;;;;;;;;;;21.28;34.06;101831.31;4955437;28;19923;-70
2023/04/06 00:09:17;;;;;;;;;;;;;;;21.25;33.74;101830.78;4973675;28;19966;-70
2023/04/06 00:11:42;;;;;;;;;;;;;;;21.23;34.00;101822.81;4963496;28;20360;-70
2023/04/06 00:14:08;;;;;;;;;;;;;;;21.22;33.85;101821.13;4957680;28;19914;-71
2023/04/06 00:16:33;;;;;;;;;;;;;;;21.19;33.83;101818.72;4970241;28;19934;-71
2023/04/06 00:18:58;;;;;;;;;;;;;;;21.17;34.00;101816.19;4960433;28;19969;-71
2023/04/06 00:21:23;;;;;;;;;;;;;;;21.16;33.99;101816.38;4967054;28;19914;-70
2023/04/06 00:23:48;;;;;;;;;;;;;;;21.13;33.75;101809.41;4963946;28;19918;-70
2023/04/06 00:26:14;;;;;;;;;;;;;;;21.12;33.88;101810.44;4966352;28;19915;-71
2023/04/06 00:28:39;;;;;;;;;;;;;;;21.11;33.70;101806.03;4959543;28;19925;-71
2023/04/06 00:31:04;;;;;;;;;;;;;;;21.08;33.78;101803.66;4968464;28;19914;-70
2023/04/06 00:33:30;;;;;;;;;;;;;;;21.06;33.94;101799.41;4960067;28;19961;-71
2023/04/06 00:35:55;;;;;;;;;;;;;;;21.04;34.01;101793.31;4963888;28;20331;-71
2023/04/06 00:38:21;;;;;;;;;;;;;;;21.03;33.77;101788.94;4967568;28;20355;-70
2023/04/06 00:40:46;;;;;;;;;;;;;;;21.02;33.89;101787.22;4955666;28;20347;-70
2023/04/06 00:43:12;;;;;;;;;;;;;;;20.98;33.69;101786.69;4974056;28;19911;-70
2023/04/06 00:45:37;;;;;;;;;;;;;;;20.96;33.94;101786.84;4959889;28;19914;-70
2023/04/06 00:48:03;;;;;;;;;;;;;;;20.94;33.91;101783.47;4964722;28;19911;-70
2023/04/06 00:50:29;;;;;;;;;;;;;;;20.94;33.81;101785.31;4966206;28;19915;-70
2023/04/06 00:52:54;;;;;;;;;;;;;;;20.91;33.63;101781.09;4968044;28;19919;-70
2023/04/06 00:55:19;;;;;;;;;;;;;;;20.90;33.62;101778.56;4963503;28;19938;-70
2023/04/06 00:57:45;;;;;;;;;;;;;;;20.88;33.75;101777.84;4970640;28;19933;-70
2023/04/06 01:00:10;;;;;;;;;;;;;;;20.86;33.89;101771.78;4968919;28;19933;-70
2023/04/06 01:02:35;;;;;;;;;;;;;;;20.84;33.87;101771.06;4970707;28;19910;-70
2023/04/06 01:05:01;;;;;;;;;;;;;;;20.82;33.85;101773.94;4970918;28;19915;-70
2023/04/06 01:07:26;;;;;;;;;;;;;;;20.81;33.59;101774.94;4966117;28;20352;-70
2023/04/06 01:09:53;;;;;;;;;;;;;;;20.80;33.71;101775.09;4971836;28;19981;-70
2023/04/06 01:12:18;;;;;;;;;;;;;;;20.78;33.67;101763.63;4962261;28;19917;-70
2023/04/06 01:14:43;;;;;;;;;;;;;;;20.76;33.62;101762.91;4962857;28;19946;-70
2023/04/06 01:17:08;;;;;;;;;;;;;;;20.75;33.65;101762.06;4969932;28;19913;-71
2023/04/06 01:19:33;;;;;;;;;;;;;;;20.72;33.70;101757.81;4969684;28;19911;-70
2023/04/06 01:21:59;;;;;;;;;;;;;;;20.70;33.95;101756.31;4960888;28;19925;-70
2023/04/06 01:24:24;;;;;;;;;;;;;;;20.69;33.90;101760.88;4967284;28;19973;-70
2023/04/06 01:26:49;;;;;;;;;;;;;;;20.66;33.67;101757.63;4967842;28;19973;-71
2023/04/06 01:29:15;;;;;;;;;;;;;;;20.65;33.73;101747.84;4963729;28;19914;-70
2023/04/06 01:31:40;;;;;;;;;;;;;;;20.63;33.78;101747.13;4977282;28;19918;-70
2023/04/06 01:34:05;;;;;;;;;;;;;;;20.61;33.97;101741.06;4963004;28;19910;-70
2023/04/06 01:36:30;;;;;;;;;;;;;;;20.59;33.84;101743.06;4972053;28;19919;-71
2023/04/06 01:38:56;;;;;;;;;;;;;;;20.58;33.73;101735.97;4969384;28;19910;-70
2023/04/06 01:41:21;;;;;;;;;;;;;;;20.57;33.76;101736.97;4962628;28;19922;-70
2023/04/06 01:43:47;;;;;;;;;;;;;;;20.55;33.81;101737.13;4970017;28;20359;-70
2023/04/06 01:46:12;;;;;;;;;;;;;;;20.53;33.82;101732.91;4964426;28;19923;-70
2023/04/06 01:48:37;;;;;;;;;;;;;;;20.52;33.89;101729.34;4965772;28;19917;-70
2023/04/06 01:51:03;;;;;;;;;;;;;;;20.49;33.74;101732.38;4969865;28;19945;-70
2023/04/06 01:53:28;;;;;;;;;;;;;;;20.48;33.85;101730.69;4975786;28;19914;-70
2023/04/06 01:55:53;;;;;;;;;;;;;;;20.46;33.66;101736.19;4960601;28;19911;-70
2023/04/06 01:58:18;;;;;;;;;;;;;;;20.44;33.97;101723.88;4973973;28;19922;-70
2023/04/06 02:00:43;;;;;;;;;;;;;;;20.43;33.95;101727.53;4963731;28;19943;-70
2023/04/06 02:03:08;;;;;;;;;;;;;;;20.41;33.94;101722.31;4965853;28;19914;-70
2023/04/06 02:05:37;;;;;;;;;;;;;;;20.40;34.02;101725.19;4969164;28;20405;-70
2023/04/06 02:08:04;;;;;;;;;;;;;;;20.38;34.08;101717.22;4959967;28;19910;-70
2023/04/06 02:10:29;;;;;;;;;;;;;;;20.36;33.79;101713.84;4973404;28;19921;-70
2023/04/06 02:12:54;;;;;;;;;;;;;;;20.34;33.76;101710.44;4964970;28;20025;-70
2023/04/06 02:15:19;;;;;;;;;;;;;;;20.32;33.78;101703.53;4968404;28;19918;-69
2023/04/06 02:17:45;;;;;;;;;;;;;;;20.31;33.79;101704.53;4967643;28;20295;-70
2023/04/06 02:20:10;;;;;;;;;;;;;;;20.30;33.97;101702.81;4966950;28;20390;-70
2023/04/06 02:22:35;;;;;;;;;;;;;;;20.29;33.99;101701.13;4961717;28;19911;-70
2023/04/06 02:25:01;;;;;;;;;;;;;;;20.26;33.69;101702.28;4972217;28;19942;-70
2023/04/06 02:27:26;;;;;;;;;;;;;;;20.26;34.11;101696.03;4968707;28;19929;-70
2023/04/06 02:29:51;;;;;;;;;;;;;;;20.24;33.90;101704.31;4959752;28;19969;-70
2023/04/06 02:32:16;;;;;;;;;;;;;;;20.21;34.06;101697.34;4976922;28;19910;-69
2023/04/06 02:34:41;;;;;;;;;;;;;;;20.21;34.08;101701.91;4960286;28;19910;-70
2023/04/06 02:37:06;;;;;;;;;;;;;;;20.18;34.11;101697.69;4970732;28;19917;-71
2023/04/06 02:39:32;;;;;;;;;;;;;;;20.17;34.13;101703.22;4968625;28;19949;-70
2023/04/06 02:41:57;;;;;;;;;;;;;;;20.16;33.70;101691.59;4964937;28;19910;-70
2023/04/06 02:44:22;;;;;;;;;;;;;;;20.14;34.00;101690.06;4969190;28;19934;-70
2023/04/06 02:46:47;;;;;;;;;;;;;;;20.13;34.15;101696.44;4969229;28;19914;-70
2023/04/06 02:49:12;;;;;;;;;;;;;;;20.10;34.06;101686.84;4964290;28;19911;-70
2023/04/06 02:51:38;;;;;;;;;;;;;;;20.10;34.05;101686.00;4964999;28;19915;-71
2023/04/06 02:54:03;;;;;;;;;;;;;;;20.08;34.09;101680.72;4971826;28;20291;-71
2023/04/06 02:56:28;;;;;;;;;;;;;;;20.07;33.92;101676.34;4969282;28;19930;-70
2023/04/06 02:58:53;;;;;;;;;;;;;;;20.06;34.16;101676.50;4970622;28;19911;-70
2023/04/06 03:01:18;;;;;;;;;;;;;;;20.03;33.98;101674.97;4965077;28;20013;-70
2023/04/06 03:03:43;;;;;;;;;;;;;;;20.01;33.91;101674.28;4964450;28;20008;-70
2023/04/06 03:06:09;;;;;;;;;;;;;;;20.00;33.90;101674.44;4972123;28;19919;-70
2023/04/06 03:08:34;;;;;;;;;;;;;;;19.98;34.06;101674.59;4962391;28;19911;-70
2023/04/06 03:10:59;;;;;;;;;;;;;;;19.95;34.10;101667.66;4979428;28;19914;-70
2023/04/06 03:13:24;;;;;;;;;;;;;;;19.94;34.21;101674.06;4964764;28;19939;-70
2023/04/06 03:15:50;;;;;;;;;;;;;;;19.93;34.15;101675.06;4967595;28;19914;-70
2023/04/06 03:18:15;;;;;;;;;;;;;;;19.91;34.05;101671.66;4964808;28;19918;-70
2023/04/06 03:20:40;;;;;;;;;;;;;;;19.90;34.33;101661.03;4971642;28;19921;-70
2023/04/06 03:23:06;;;;;;;;;;;;;;;19.89;34.10;101670.16;4959715;28;19911;-70
2023/04/06 03:25:31;;;;;;;;;;;;;;;19.87;34.07;101664.88;4969573;28;19929;-70
2023/04/06 03:27:56;;;;;;;;;;;;;;;19.86;34.28;101659.66;4968695;28;19981;-70
2023/04/06 03:30:21;;;;;;;;;;;;;;;19.85;34.18;101666.06;4957450;28;19910;-70
2023/04/06 03:32:46;;;;;;;;;;;;;;;19.83;34.25;101658.09;4975167;28;19974;-71
2023/04/06 03:35:12;;;;;;;;;;;;;;;19.81;34.32;101662.81;4960908;28;19921;-70
2023/04/06 03:37:37;;;;;;;;;;;;;;;19.80;34.22;101671.94;4967049;28;19957;-70
2023/04/06 03:40:05;;;;;;;;;;;;;;;19.79;34.37;101662.13;4968033;28;19917;-70
2023/04/06 03:42:32;;;;;;;;;;;;;;;19.78;34.15;101659.59;4966844;28;19922;-70
2023/04/06 03:44:57;;;;;;;;;;;;;;;19.75;34.38;101649.94;4961856;28;19957;-70
2023/04/06 03:47:22;;;;;;;;;;;;;;;19.73;34.50;101646.56;4970480;28;19910;-70
2023/04/06 03:49:47;;;;;;;;;;;;;;;19.74;34.26;101653.66;4963162;28;19986;-70
2023/04/06 03:52:12;;;;;;;;;;;;;;;19.71;34.21;101657.53;4961108;28;19916;-70
2023/04/06 03:54:38;;;;;;;;;;;;;;;19.70;34.15;101655.81;4970973;28;19921;-70
2023/04/06 03:57:03;;;;;;;;;;;;;;;19.68;34.44;101647.03;4956296;28;19911;-70
2023/04/06 03:59:29;;;;;;;;;;;;;;;19.66;34.31;101651.72;4974577;28;19921;-70
2023/04/06 04:01:54;;;;;;;;;;;;;;;19.64;34.50;101652.91;4962646;28;19910;-70
2023/04/06 04:04:19;;;;;;;;;;;;;;;19.63;34.46;101653.91;4962495;28;20045;-70
2023/04/06 04:06:45;;;;;;;;;;;;;;;19.62;34.31;101650.34;4970457;28;19921;-70
2023/04/06 04:09:10;;;;;;;;;;;;;;;19.61;34.51;101653.19;4963655;28;19994;-70
2023/04/06 04:11:35;;;;;;;;;;;;;;;19.60;34.45;101651.47;4963433;28;19925;-70
2023/04/06 04:14:00;;;;;;;;;;;;;;;19.57;34.48;101649.94;4967217;28;19913;-71
2023/04/06 04:16:25;;;;;;;;;;;;;;;19.57;34.58;101649.09;4967065;28;19910;-70
2023/04/06 04:18:51;;;;;;;;;;;;;;;19.55;34.44;101653.81;4958694;28;19915;-70
2023/04/06 04:21:16;;;;;;;;;;;;;;;19.54;34.50;101652.09;4973745;28;19914;-72
2023/04/06 04:23:41;;;;;;;;;;;;;;;19.53;34.55;101650.41;4960290;28;19938;-71
2023/04/06 04:26:06;;;;;;;;;;;;;;;19.53;34.47;101647.69;4969569;28;19949;-69
2023/04/06 04:28:31;;;;;;;;;;;;;;;19.51;34.41;101641.63;4964936;28;19918;-68
2023/04/06 04:30:57;;;;;;;;;;;;;;;19.49;34.50;101652.53;4966780;28;19921;-70
2023/04/06 04:33:22;;;;;;;;;;;;;;;19.48;34.42;101646.31;4970822;28;19910;-70
2023/04/06 04:35:47;;;;;;;;;;;;;;;19.46;34.71;101648.31;4963248;28;19914;-70
2023/04/06 04:38:12;;;;;;;;;;;;;;;19.46;34.74;101653.72;4967063;28;19914;-68
2023/04/06 04:40:37;;;;;;;;;;;;;;;19.45;34.91;101638.56;4966152;28;19910;-70
2023/04/06 04:43:03;;;;;;;;;;;;;;;19.44;34.83;101642.22;4967753;28;19910;-70
2023/04/06 04:45:28;;;;;;;;;;;;;;;19.44;35.32;101639.53;4963476;28;19918;-69
2023/04/06 04:47:53;;;;;;;;;;;;;;;19.43;35.48;101635.13;4971710;28;19933;-70
2023/04/06 04:50:18;;;;;;;;;;;;;;;19.43;35.67;101640.53;4965529;28;19949;-69
2023/04/06 04:52:43;;;;;;;;;;;;;;;19.43;35.49;101643.22;4962661;28;19914;-68
2023/04/06 04:55:09;;;;;;;;;;;;;;;19.43;35.39;101635.13;4968098;28;19918;-68
2023/04/06 04:57:34;;;;;;;;;;;;;;;19.44;35.53;101644.06;4962772;28;19911;-69
2023/04/06 04:59:59;;;;;;;;;;;;;;;19.44;35.64;101644.06;4968889;28;19914;-71
2023/04/06 05:02:24;;;;;;;;;;;;;;;19.45;35.80;101637.69;4968682;28;19942;-69
2023/04/06 05:04:49;;;;;;;;;;;;;;;19.46;35.84;101640.25;4967308;28;19957;-69
2023/04/06 05:07:15;;;;;;;;;;;;;;;19.47;35.64;101639.22;4968544;28;20315;-69
2023/04/06 05:09:40;;;;;;;;;;;;;;;19.48;35.70;101634.69;4974027;28;20030;-69
2023/04/06 05:12:05;;;;;;;;;;;;;;;19.48;35.82;101638.22;4969937;28;19922;-69
2023/04/06 05:14:31;;;;;;;;;;;;;;;19.49;35.87;101637.22;4971435;28;19918;-70
2023/04/06 05:16:56;;;;;;;;;;;;;;;19.52;35.82;101635.22;4970080;28;19919;-70
2023/04/06 05:19:21;;;;;;;;;;;;;;;19.53;35.66;101629.66;4960967;28;19917;-69
2023/04/06 05:21:46;;;;;;;;;;;;;;;19.55;35.44;101629.53;4975799;28;19992;-70
2023/04/06 05:24:11;;;;;;;;;;;;;;;19.55;35.64;101624.13;4963017;28;19910;-67
2023/04/06 05:26:36;;;;;;;;;;;;;;;19.57;35.75;101630.19;4961235;28;19919;-69
2023/04/06 05:29:02;;;;;;;;;;;;;;;19.57;35.66;101625.66;4968296;28;19946;-69
2023/04/06 05:31:27;;;;;;;;;;;;;;;19.60;35.77;101628.03;4965891;28;19934;-69
2023/04/06 05:33:52;;;;;;;;;;;;;;;19.63;35.53;101629.63;4970246;28;19953;-69
2023/04/06 05:36:17;;;;;;;;;;;;;;;19.64;35.64;101628.63;4968968;28;19925;-70
2023/04/06 05:38:42;;;;;;;;;;;;;;;19.65;35.67;101627.59;4966218;28;19918;-68
2023/04/06 05:41:08;;;;;;;;;;;;;;;19.66;35.65;101613.94;4969175;28;19930;-69
2023/04/06 05:43:33;;;;;;;;;;;;;;;19.68;35.48;101614.66;4973762;28;19911;-67
2023/04/06 05:45:58;;;;;;;;;;;;;;;19.70;35.30;101617.19;4961685;28;19923;-69
2023/04/06 05:48:23;;;;;;;;;;;;;;;19.73;35.34;101614.19;4974317;28;19910;-70
2023/04/06 05:50:50;;;;;;;;;;;;;;;19.74;35.00;101610.47;4971988;28;20132;-70
2023/04/06 05:53:15;;;;;;;;;;;;;;;19.77;35.12;101609.31;4963699;28;19910;-70
2023/04/06 05:55:40;;;;;;;;;;;;;;;19.79;34.93;101618.09;4973680;28;19917;-70
2023/04/06 05:58:06;;;;;;;;;;;;;;;19.80;35.06;101615.25;4962423;28;19938;-73
2023/04/06 06:00:31;;;;;;;;;;;;;;;19.81;34.85;101606.16;4970001;28;19914;-73
2023/04/06 06:02:56;;;;;;;;;;;;;;;19.84;34.94;101615.81;4966898;28;20621;-74
2023/04/06 06:05:21;;;;;;;;;;;;;;;19.86;34.61;101616.47;4967980;28;20001;-72
2023/04/06 06:07:46;;;;;;;;;;;;;;;19.88;34.38;101614.44;4971763;28;20394;-71
2023/04/06 06:10:12;;;;;;;;;;;;;;;19.89;34.86;101622.41;4971115;28;19918;-74
2023/04/06 06:12:37;;;;;;;;;;;;;;;19.92;34.63;101615.81;4961700;28;19911;-73
2023/04/06 06:15:02;;;;;;;;;;;;;;;19.93;34.69;101621.09;4965765;28;19929;-74
2023/04/06 06:17:27;;;;;;;;;;;;;;;19.96;34.91;101617.22;4972721;28;19914;-73
2023/04/06 06:19:53;;;;;;;;;;;;;;;19.98;35.13;101617.91;4964839;28;19911;-71
2023/04/06 06:22:18;;;;;;;;;;;;;;;20.01;34.68;101611.31;4972251;28;19988;-68
2023/04/06 06:24:43;;;;;;;;;;;;;;;20.04;34.99;101606.47;4967749;28;19981;-75
2023/04/06 06:27:08;;;;;;;;;;;;;;;20.06;34.96;101606.31;4969526;28;19914;-75
2023/04/06 06:29:33;;;;;;;;;;;;;;;20.09;34.63;101606.84;4971983;28;19965;-72
2023/04/06 06:31:59;;;;;;;;;;;;;;;20.13;34.58;101612.75;4970142;28;19953;-73
2023/04/06 06:34:24;;;;;;;;;;;;;;;20.15;34.58;101610.75;4966384;28;19910;-66
2023/04/06 06:36:49;;;;;;;;;;;;;;;20.17;34.57;101606.03;4968281;28;19926;-68
2023/04/06 06:39:14;;;;;;;;;;;;;;;20.19;34.44;101609.44;4967796;28;19921;-68
2023/04/06 06:41:40;;;;;;;;;;;;;;;20.21;34.79;101610.09;4969265;28;19997;-68
2023/04/06 06:44:05;;;;;;;;;;;;;;;20.23;34.49;101608.09;4971152;28;19950;-67
2023/04/06 06:46:30;;;;;;;;;;;;;;;20.25;34.69;101600.69;4965122;28;19974;-70
2023/04/06 06:48:55;;;;;;;;;;;;;;;20.28;34.46;101605.78;4970349;28;19957;-72
2023/04/06 06:51:20;;;;;;;;;;;;;;;20.32;34.79;101606.31;4967034;28;20351;-72
2023/04/06 06:53:46;;;;;;;;;;;;;;;20.34;34.61;101605.13;4967784;28;19926;-72
2023/04/06 06:56:12;;;;;;;;;;;;;;;20.36;34.54;101604.97;4972848;28;19942;-72
2023/04/06 06:58:37;;;;;;;;;;;;;;;20.38;34.30;101601.09;4962751;28;19911;-72
2023/04/06 07:01:04;;;;;;;;;;;;;;;20.40;34.46;101595.53;4964478;28;19914;-72
2023/04/06 07:03:30;;;;;;;;;;;;;;;20.42;34.45;101596.22;4965583;28;19918;-72
2023/04/06 07:05:55;;;;;;;;;;;;;;;20.44;34.05;101591.50;4968098;28;19937;-72
2023/04/06 07:08:21;;;;;;;;;;;;;;;20.45;34.15;101593.19;4961724;28;19945;-72
2023/04/06 07:10:46;;;;;;;;;;;;;;;20.48;33.84;101595.59;4972417;28;19965;-72
2023/04/06 07:13:12;;;;;;;;;;;;;;;20.48;33.91;101584.81;4960882;28;19934;-72
2023/04/06 07:15:37;;;;;;;;;;;;;;;20.51;33.82;101595.25;4969984;28;19911;-72
2023/04/06 07:18:02;;;;;;;;;;;;;;;20.53;33.96;101593.25;4969434;28;19919;-72
2023/04/06 07:20:28;;;;;;;;;;;;;;;20.56;33.68;101592.06;4957335;28;19910;-72
2023/04/06 07:22:53;;;;;;;;;;;;;;;20.58;33.86;101592.78;4972338;28;19989;-72
2023/04/06 07:25:18;;;;;;;;;;;;;;;20.59;33.60;101595.31;4961009;28;19914;-72
2023/04/06 07:27:43;;;;;;;;;;;;;;;20.62;33.59;101588.72;4963577;28;19953;-72
2023/04/06 07:30:08;;;;;;;;;;;;;;;20.64;33.64;101590.25;4968358;28;20825;-72
2023/04/06 07:32:35;;;;;;;;;;;;;;;20.66;33.52;101585.53;4967132;28;19911;-72
2023/04/06 07:35:00;;;;;;;;;;;;;;;20.70;33.33;101583.38;4961758;28;19977;-72
2023/04/06 07:37:25;;;;;;;;;;;;;;;20.74;33.51;101589.28;4969652;28;19918;-72
2023/04/06 07:39:51;;;;;;;;;;;;;;;20.76;33.63;101584.56;4964141;28;19911;-72
2023/04/06 07:42:16;;;;;;;;;;;;;;;20.78;33.23;101577.97;4960503;28;19916;-71
2023/04/06 07:44:41;;;;;;;;;;;;;;;20.82;33.22;101578.50;4971811;28;19914;-72
2023/04/06 07:47:06;;;;;;;;;;;;;;;20.85;33.39;101580.84;4956470;28;19918;-72
2023/04/06 07:49:32;;;;;;;;;;;;;;;20.88;33.20;101584.06;4973963;28;19957;-72
2023/04/06 07:51:57;;;;;;;;;;;;;;;20.92;33.00;101581.91;4963884;28;20008;-72
2023/04/06 07:54:23;;;;;;;;;;;;;;;20.94;33.21;101571.75;4964768;28;19918;-72
2023/04/06 07:56:48;;;;;;;;;;;;;;;20.97;32.86;101574.97;4969150;28;19944;-72
2023/04/06 07:59:13;;;;;;;;;;;;;;;21.01;32.65;101575.50;4964174;28;19914;-74
2023/04/06 08:01:38;;;;;;;;;;;;;;;21.04;32.61;101574.31;4960870;28;19977;-72
2023/04/06 08:04:04;;;;;;;;;;;;;;;21.06;32.76;101577.69;4967532;28;19937;-72
2023/04/06 08:06:29;;;;;;;;;;;;;;;21.10;32.63;101574.47;4967274;28;19965;-72
2023/04/06 08:08:54;;;;;;;;;;;;;;;21.13;32.77;101576.84;4957761;28;19910;-72
2023/04/06 08:11:19;;;;;;;;;;;;;;;21.17;32.59;101572.81;4973874;28;19930;-72
2023/04/06 08:13:45;;;;;;;;;;;;;;;21.21;32.54;101578.72;4960187;28;19938;-72
2023/04/06 08:16:10;;;;;;;;;;;;;;;21.24;32.47;101570.28;4963624;28;20259;-72
2023/04/06 08:18:35;;;;;;;;;;;;;;;21.27;32.49;101564.53;4967944;28;19910;-72
2023/04/06 08:21:00;;;;;;;;;;;;;;;21.31;32.40;101565.03;4960309;28;19910;-72
2023/04/06 08:23:26;;;;;;;;;;;;;;;21.32;32.05;101569.47;4971190;28;19998;-72
2023/04/06 08:25:54;;;;;;;;;;;;;;;21.38;32.01;101571.50;4962146;28;19915;-72
2023/04/06 08:28:19;;;;;;;;;;;;;;;21.41;32.10;101577.44;4963276;28;19962;-73
2023/04/06 08:30:44;;;;;;;;;;;;;;;21.44;32.10;101570.81;4965033;28;19966;-73
2023/04/06 08:33:09;;;;;;;;;;;;;;;21.48;32.05;101566.75;4968507;28;19914;-72
2023/04/06 08:35:35;;;;;;;;;;;;;;;21.50;32.07;101566.59;4956052;28;19958;-72
2023/04/06 08:38:00;;;;;;;;;;;;;;;21.55;31.82;101558.81;4976435;28;19918;-72
2023/04/06 08:40:25;;;;;;;;;;;;;;;21.58;32.10;101559.34;4969690;28;19910;-72
2023/04/06 08:42:52;;;;;;;;;;;;;;;21.62;31.92;101555.28;4978015;28;19910;-72
2023/04/06 08:45:20;;;;;;;;;;;;;;;21.66;31.95;101558.44;4980975;28;19915;-72
2023/04/06 08:47:46;;;;;;;;;;;;;;;21.73;31.74;101558.63;4968454;28;19918;-72
2023/04/06 08:50:11;;;;;;;;;;;;;;;21.76;31.82;101551.00;4974185;28;20008;-72
2023/04/06 08:52:36;;;;;;;;;;;;;;;21.79;31.63;101550.69;4968248;28;20423;-72
2023/04/06 08:55:02;;;;;;;;;;;;;;;21.83;31.77;101554.69;4970044;28;19956;-73
2023/04/06 08:57:27;;;;;;;;;;;;;;;21.86;31.46;101553.53;4973154;28;19982;-72
2023/04/06 08:59:52;;;;;;;;;;;;;;;21.90;31.47;101547.59;4973471;28;20004;-72
2023/04/06 09:02:18;;;;;;;;;;;;;;;21.94;31.72;101546.22;4972162;28;20084;-72
2023/04/06 09:04:44;;;;;;;;;;;;;;;21.96;31.60;101548.75;4975012;28;20439;-72
2023/04/06 09:07:09;;;;;;;;;;;;;;;21.99;31.58;101551.13;4972808;28;19922;-72
2023/04/06 09:09:34;;;;;;;;;;;;;;;22.03;31.41;101548.91;4959783;28;19915;-72
2023/04/06 09:12:05;;;;;;;;;;;;;;;22.06;31.62;101551.28;4980339;28;19924;-72
2023/04/06 09:14:35;;;;;;;;;;;;;;;22.08;31.62;101551.94;4972077;28;19919;-73
2023/04/06 09:17:00;;;;;;;;;;;;;;;22.10;31.39;101541.78;4974097;28;19918;-74
2023/04/06 09:19:25;;;;;;;;;;;;;;;22.13;31.14;101541.44;4972469;28;19921;-72
2023/04/06 09:22:00;;;;;;;;;;;;;;;22.14;31.65;101549.41;4968645;28;20391;-72
2023/04/06 09:24:26;;;;;;;;;;;;;;;22.15;31.31;101539.44;4970061;28;20359;-72
2023/04/06 09:26:51;;;;;;;;;;;;;;;22.16;31.50;101538.41;4968552;28;19914;-72
2023/04/06 09:29:26;;;;;;;;;;;;;;;22.16;31.73;101536.53;4966865;28;19922;-72
2023/04/06 09:31:51;;;;;;;;;;;;;;;22.14;31.58;101543.16;4970245;28;19910;-73
2023/04/06 09:34:23;;;;;;;;;;;;;;;22.15;31.58;101540.28;4973694;28;19921;-72
2023/04/06 09:36:48;;;;;;;;;;;;;;;22.17;31.43;101540.09;4960340;28;19941;-72
2023/04/06 09:39:13;;;;;;;;;;;;;;;22.14;31.71;101537.75;4978955;28;20367;-71
2023/04/06 09:41:39;;;;;;;;;;;;;;;22.15;31.72;101534.00;4964882;28;19957;-73
2023/04/06 09:44:05;;;;;;;;;;;;;;;22.14;31.75;101535.88;4970868;28;19938;-74
2023/04/06 09:46:31;;;;;;;;;;;;;;;22.13;31.97;101530.63;4972693;28;20356;-73
2023/04/06 09:48:57;;;;;;;;;;;;;;;22.12;31.81;101528.91;4964080;28;19917;-73
2023/04/06 09:51:22;;;;;;;;;;;;;;;22.08;32.18;101535.69;4971157;28;19917;-73
2023/04/06 09:53:50;;;;;;;;;;;;;;;22.08;31.91;101539.25;4971810;28;19952;-73
2023/04/06 09:56:17;;;;;;;;;;;;;;;22.07;32.17;101525.88;4969800;28;19910;-72
2023/04/06 09:58:42;;;;;;;;;;;;;;;22.06;32.19;101530.47;4964925;28;19918;-72
2023/04/06 10:01:10;;;;;;;;;;;;;;;22.07;32.14;101534.00;4972581;28;19914;-70
2023/04/06 10:03:45;;;;;;;;;;;;;;;22.08;31.89;101523.00;4963180;28;19914;-73
2023/04/06 10:06:11;;;;;;;;;;;;;;;22.03;32.05;101528.09;4971833;28;20477;-73
2023/04/06 10:08:36;;;;;;;;;;;;;;;21.99;32.29;101518.63;4972190;28;19913;-73
2023/04/06 10:11:01;;;;;;;;;;;;;;;22.00;32.40;101516.75;4956915;28;19972;-72
2023/04/06 10:13:26;;;;;;;;;;;;;;;22.00;32.40;101514.03;4974643;28;19911;-73
2023/04/06 10:15:52;;;;;;;;;;;;;;;22.02;32.20;101514.75;4961003;28;19911;-72
2023/04/06 10:18:17;;;;;;;;;;;;;;;22.04;32.29;101512.69;4968929;28;20371;-73
2023/04/06 10:20:53;;;;;;;;;;;;;;;22.03;32.58;101506.44;4967306;28;20367;-73
2023/04/06 10:23:33;;;;;;;;;;;;;;;22.04;32.55;101509.97;4967306;28;19911;-73
2023/04/06 10:25:59;;;;;;;;;;;;;;;22.04;32.57;101505.41;4966817;28;20355;-73
2023/04/06 10:28:25;;;;;;;;;;;;;;;22.05;32.43;101507.13;4971056;28;20141;-73
2023/04/06 10:30:56;;;;;;;;;;;;;;;22.04;32.55;101508.09;4958789;28;19943;-73
2023/04/06 10:33:22;;;;;;;;;;;;;;;22.05;32.34;101508.97;4973932;28;19914;-73
2023/04/06 10:35:47;;;;;;;;;;;;;;;22.03;32.58;101513.72;4961755;28;19946;-72
2023/04/06 10:38:14;;;;;;;;;;;;;;;22.00;32.63;101516.75;4973828;28;19977;-72
2023/04/06 10:40:39;;;;;;;;;;;;;;;21.96;32.83;101502.72;4974365;28;19992;-73
2023/04/06 10:43:17;;;;;;;;;;;;;;;21.96;32.83;101506.31;4959169;28;19911;-73
2023/04/06 10:45:43;;;;;;;;;;;;;;;;;;4974732;28;19915;-73
2023/04/06 10:48:17;;;;;;;;;;;;;;;21.95;32.63;101510.00;4962899;28;19911;-73
2023/04/06 10:50:43;;;;;;;;;;;;;;;21.98;32.82;101505.28;4968082;28;19915;-73
2023/04/06 10:53:08;;;;;;;;;;;;;;;21.95;32.98;101512.72;4966510;28;19964;-73
2023/04/06 10:55:33;;;;;;;;;;;;;;;21.94;32.97;101513.72;4968668;28;19910;-73
2023/04/06 10:57:59;;;;;;;;;;;;;;;21.94;32.92;101513.72;4956704;28;19918;-73
2023/04/06 11:00:24;;;;;;;;;;;;;;;21.95;33.07;101520.00;4971566;28;19953;-73
2023/04/06 11:02:49;;;;;;;;;;;;;;;21.94;32.76;101508.31;4963910;28;19922;-73
2023/04/06 11:05:15;;;;;;;;;;;;;;;21.95;32.71;101509.16;4961377;28;19917;-72
2023/04/06 11:07:40;;;;;;;;;;;;;;;;;;4972015;28;19914;-72
2023/04/06 11:10:05;;;;;;;;;;;;;;;;;;4960682;28;19915;-73
2023/04/06 11:12:30;;;;;;;;;;;;;;;;;;4967904;28;19917;-73
2023/04/06 11:15:05;;;;;;;;;;;;;;;21.95;33.06;101510.00;4963611;28;19910;-73
2023/04/06 11:17:31;;;;;;;;;;;;;;;21.96;33.08;101517.13;4963320;28;19914;-73
2023/04/06 11:19:56;;;;;;;;;;;;;;;;;;4967690;28;19937;-73
2023/04/06 11:22:22;;;;;;;;;;;;;;;21.98;32.84;101510.69;4969732;28;19918;-73
2023/04/06 11:24:48;;;;;;;;;;;;;;;21.96;33.00;101509.00;4959013;28;19921;-74
2023/04/06 11:27:15;;;;;;;;;;;;;;;21.96;33.01;101519.84;4971511;28;19914;-73
2023/04/06 11:29:40;;;;;;;;;;;;;;;21.96;33.12;101516.25;4965673;28;19914;-73
2023/04/06 11:32:06;;;;;;;;;;;;;;;21.95;32.92;101515.41;4961757;28;19948;-72
2023/04/06 11:34:33;;;;;;;;;;;;;;;21.95;32.88;101511.88;4973609;28;19977;-73
2023/04/06 11:36:59;;;;;;;;;;;;;;;21.96;33.08;101510.84;4958807;28;19925;-73
2023/04/06 11:39:24;;;;;;;;;;;;;;;21.94;32.91;101504.78;4969663;28;20008;-73
2023/04/06 11:41:50;;;;;;;;;;;;;;;21.94;33.13;101502.91;4965182;28;19921;-73
2023/04/06 11:44:15;;;;;;;;;;;;;;;21.94;33.04;101500.19;4964749;28;19910;-73
2023/04/06 11:46:41;;;;;;;;;;;;;;;21.94;33.14;101502.91;4965669;28;19936;-73
2023/04/06 11:49:06;;;;;;;;;;;;;;;21.94;33.05;101502.91;4968056;28;19916;-73
2023/04/06 11:51:35;;;;;;;;;;;;;;;21.94;33.05;101504.78;4962827;28;19970;-72
2023/04/06 11:54:00;;;;;;;;;;;;;;;21.94;33.01;101497.50;4974071;28;19926;-73
2023/04/06 11:56:26;;;;;;;;;;;;;;;21.95;33.19;101498.31;4969712;28;19911;-73
2023/04/06 11:58:52;;;;;;;;;;;;;;;21.93;33.30;101498.50;4956578;28;19938;-73
2023/04/06 12:01:17;;;;;;;;;;;;;;;21.92;33.03;101502.25;4976220;28;19921;-73
2023/04/06 12:03:42;;;;;;;;;;;;;;;21.93;33.46;101500.38;4963694;28;19919;-73
2023/04/06 12:06:07;;;;;;;;;;;;;;;21.92;33.18;101510.38;4968130;28;19914;-73
2023/04/06 12:08:32;;;;;;;;;;;;;;;21.92;33.36;101502.25;4968325;28;19994;-73
2023/04/06 12:10:59;;;;;;;;;;;;;;;21.92;33.42;101504.97;4963230;28;20347;-73
2023/04/06 12:13:24;;;;;;;;;;;;;;;21.91;33.27;101510.53;4966698;28;19917;-73
2023/04/06 12:15:49;;;;;;;;;;;;;;;21.90;33.39;101501.56;4965476;28;19981;-73
2023/04/06 12:18:15;;;;;;;;;;;;;;;21.90;33.47;101511.56;4964908;28;19978;-73
2023/04/06 12:20:40;;;;;;;;;;;;;;;21.89;33.54;101499.88;4957933;28;19914;-73
2023/04/06 12:23:05;;;;;;;;;;;;;;;21.89;33.39;101501.75;4972917;28;19910;-73
2023/04/06 12:25:31;;;;;;;;;;;;;;;21.89;33.33;101505.28;4957597;28;20351;-73
2023/04/06 12:27:56;;;;;;;;;;;;;;;21.90;33.64;101503.44;4973167;28;19911;-73
2023/04/06 12:30:21;;;;;;;;;;;;;;;21.88;33.30;101498.19;4963695;28;19910;-73
2023/04/06 12:32:46;;;;;;;;;;;;;;;21.88;33.58;101502.78;4958660;28;19910;-72